createdAt,value
2018-08-08T00:02:04.123Z,6.78
2018-08-08T00:06:07.450Z,7.05
2018-08-08T00:10:11.496Z,6.70
2018-08-08T00:14:14.946Z,7.37
2018-08-08T00:18:18.568Z,6.97
2018-08-08T00:22:23.448Z,7.67
2018-08-08T00:26:26.820Z,6.80
2018-08-08T00:30:30.715Z,6.80
2018-08-08T00:34:34.683Z,7.47
2018-08-08T00:38:38.226Z,7.28
2018-08-08T00:42:41.839Z,7.75
2018-08-08T00:46:45.187Z,7.60
2018-08-08T00:50:48.522Z,7.50
2018-08-08T00:54:51.853Z,7.25
2018-08-08T00:58:55.215Z,7.90
2018-08-08T01:02:59.331Z,8.13
2018-08-08T01:07:02.779Z,7.80
2018-08-08T01:11:06.131Z,7.80
2018-08-08T01:15:11.621Z,7.30
2018-08-08T01:19:15.098Z,7.28
2018-08-08T01:23:18.443Z,6.75
2018-08-08T01:27:22.398Z,6.97
2018-08-08T01:31:25.719Z,7.97
2018-08-08T01:35:29.090Z,7.08
2018-08-08T01:39:32.467Z,7.40
2018-08-08T01:43:35.863Z,6.65
2018-08-08T01:47:39.355Z,7.27
2018-08-08T01:51:42.781Z,7.80
2018-08-08T01:55:46.110Z,7.65
2018-08-08T01:59:50.825Z,7.70
2018-08-08T02:03:54.227Z,6.60
2018-08-08T02:07:57.547Z,6.67
2018-08-08T02:12:00.875Z,6.80
2018-08-08T02:16:04.243Z,6.60
2018-08-08T02:20:08.761Z,6.53
2018-08-08T02:24:12.119Z,7.00
2018-08-08T02:28:15.460Z,7.30
2018-08-08T02:32:18.804Z,7.07
2018-08-08T02:36:21.890Z,7.10
2018-08-08T02:40:25.224Z,6.50
2018-08-08T02:44:30.007Z,7.47
2018-08-08T02:52:43.204Z,7.17
2018-08-08T02:56:46.543Z,7.40
2018-08-08T03:00:49.921Z,7.08
2018-08-08T03:04:53.259Z,6.70
2018-08-08T03:08:56.633Z,6.73
2018-08-08T03:13:00.403Z,6.60
2018-08-08T03:17:03.793Z,7.00
2018-08-08T03:21:07.150Z,6.53
2018-08-08T03:25:12.290Z,6.23
2018-08-08T03:29:15.667Z,6.80
2018-08-08T03:33:18.983Z,6.67
2018-08-08T03:37:22.328Z,6.70
2018-08-08T03:41:25.781Z,5.97
2018-08-08T03:45:30.104Z,6.33
2018-08-08T03:49:33.436Z,6.50
2018-08-08T03:53:38.119Z,6.67
2018-08-08T03:57:41.908Z,6.13
2018-08-08T04:01:45.292Z,6.83
2018-08-08T04:05:48.638Z,6.77
2018-08-08T04:09:52.031Z,6.80
2018-08-08T04:13:55.397Z,6.83
2018-08-08T04:17:58.766Z,8.33
2018-08-08T04:22:02.105Z,6.87
2018-08-08T04:26:05.484Z,7.03
2018-08-08T04:30:14.959Z,7.10
2018-08-08T04:34:18.276Z,6.47
2018-08-08T04:38:21.623Z,6.83
2018-08-08T04:42:24.954Z,6.97
2018-08-08T04:46:28.303Z,7.00
2018-08-08T04:50:31.628Z,6.97
2018-08-08T04:54:34.968Z,7.43
2018-08-08T04:58:38.288Z,7.03
2018-08-08T05:02:41.736Z,7.10
2018-08-08T05:06:45.097Z,6.53
2018-08-08T05:10:48.455Z,6.70
2018-08-08T05:14:51.803Z,6.17
2018-08-08T05:18:55.127Z,6.78
2018-08-08T05:22:58.479Z,6.70
2018-08-08T05:27:01.839Z,6.50
2018-08-08T05:31:05.214Z,6.87
2018-08-08T05:35:08.317Z,6.93
2018-08-08T05:39:13.407Z,7.00
2018-08-08T05:43:16.786Z,6.67
2018-08-08T05:47:20.141Z,7.03
2018-08-08T05:51:23.523Z,7.12
2018-08-08T05:56:10.418Z,7.07
2018-08-08T06:00:29.987Z,6.83
2018-08-08T06:04:33.320Z,7.00
2018-08-08T06:08:37.288Z,7.07
2018-08-08T06:12:40.754Z,7.40
2018-08-08T06:16:44.117Z,7.27
2018-08-08T06:20:47.487Z,7.07
2018-08-08T06:24:51.006Z,6.60
2018-08-08T06:28:54.362Z,7.07
2018-08-08T06:32:58.603Z,7.20
2018-08-08T06:37:01.995Z,7.23
2018-08-08T06:41:05.833Z,7.67
2018-08-08T06:45:12.062Z,8.57
2018-08-08T06:49:15.465Z,7.80
2018-08-08T06:53:19.555Z,7.10
2018-08-08T06:57:22.934Z,7.67
2018-08-08T07:01:26.635Z,7.60
2018-08-08T07:05:29.994Z,7.60
2018-08-08T07:09:33.351Z,8.03
2018-08-08T07:13:36.754Z,7.60
2018-08-08T07:17:40.184Z,7.97
2018-08-08T07:21:43.574Z,7.83
2018-08-08T07:25:46.927Z,8.13
2018-08-08T07:29:50.286Z,8.03
2018-08-08T07:33:53.655Z,8.40
2018-08-08T07:37:57.029Z,7.67
2018-08-08T07:42:00.396Z,7.87
2018-08-08T07:46:04.056Z,8.25
2018-08-08T07:50:08.681Z,7.63
2018-08-08T07:54:12.060Z,7.80
2018-08-08T07:58:15.498Z,8.03
2018-08-08T08:02:19.398Z,7.53
2018-08-08T08:06:22.754Z,8.70
2018-08-08T08:10:26.118Z,6.80
2018-08-08T08:14:29.463Z,7.83
2018-08-08T08:18:32.892Z,8.10
2018-08-08T08:22:36.242Z,8.40
2018-08-08T08:26:39.594Z,7.40
2018-08-08T08:30:42.952Z,7.13
2018-08-08T08:34:46.295Z,6.80
2018-08-08T08:38:49.632Z,5.87
2018-08-08T08:42:52.968Z,6.70
2018-08-08T08:46:56.336Z,6.17
2018-08-08T08:50:59.402Z,6.47
2018-08-08T08:55:02.816Z,6.42
2018-08-08T08:59:06.301Z,6.00
2018-08-08T09:03:09.683Z,5.75
2018-08-08T09:07:13.007Z,5.62
2018-08-08T09:11:16.358Z,5.85
2018-08-08T09:15:26.348Z,5.25
2018-08-08T09:19:29.688Z,5.15
2018-08-08T09:23:33.024Z,5.25
2018-08-08T09:27:36.579Z,5.33
2018-08-08T09:31:39.995Z,5.17
2018-08-08T09:35:43.331Z,5.03
2018-08-08T09:39:46.684Z,4.92
2018-08-08T09:43:50.014Z,4.45
2018-08-08T09:47:53.347Z,4.28
2018-08-08T09:51:56.707Z,4.80
2018-08-08T09:56:00.044Z,5.90
2018-08-08T10:00:03.504Z,4.47
2018-08-08T10:04:12.161Z,4.17
2018-08-08T10:08:15.487Z,4.50
2018-08-08T10:12:18.974Z,3.77
2018-08-08T10:16:22.468Z,5.00
2018-08-08T10:20:25.800Z,4.83
2018-08-08T10:24:30.968Z,4.35
2018-08-08T10:28:34.301Z,5.45
2018-08-08T10:32:37.953Z,5.30
2018-08-08T10:36:41.307Z,5.10
2018-08-08T10:40:44.631Z,5.30
2018-08-08T10:44:47.954Z,5.22
2018-08-08T10:48:51.296Z,5.22
2018-08-08T10:52:54.617Z,5.40
2018-08-08T10:56:57.943Z,6.08
2018-08-08T11:01:01.308Z,6.05
2018-08-08T11:05:04.898Z,6.05
2018-08-08T11:09:09.162Z,6.50
2018-08-08T11:13:12.452Z,6.55
2018-08-08T11:17:15.767Z,7.05
2018-08-08T11:21:19.196Z,6.70
2018-08-08T11:25:22.555Z,7.60
2018-08-08T11:29:25.908Z,7.50
2018-08-08T11:33:29.211Z,6.85
2018-08-08T11:37:32.632Z,8.33
2018-08-08T11:41:36.095Z,7.92
2018-08-08T11:45:39.431Z,7.72
2018-08-08T11:49:42.768Z,7.72
2018-08-08T11:53:46.119Z,7.78
2018-08-08T11:57:49.464Z,7.50
2018-08-08T12:01:52.871Z,8.45
2018-08-08T12:05:56.206Z,8.10
2018-08-08T12:09:59.576Z,8.65
2018-08-08T12:14:02.914Z,8.30
2018-08-08T12:18:06.763Z,9.40
2018-08-08T12:22:13.151Z,9.00
2018-08-08T12:26:16.506Z,9.33
2018-08-08T12:30:20.040Z,8.95
2018-08-08T12:34:23.416Z,9.13
2018-08-08T12:38:26.834Z,8.68
2018-08-08T12:42:30.539Z,8.90
2018-08-08T12:46:33.909Z,8.45
2018-08-08T12:50:37.253Z,8.35
2018-08-08T12:54:40.568Z,7.83
2018-08-08T12:58:43.894Z,8.20
2018-08-08T13:02:47.252Z,8.08
2018-08-08T13:06:50.632Z,7.90
2018-08-08T13:10:54.009Z,7.67
2018-08-08T13:14:57.334Z,7.75
2018-08-08T13:19:00.681Z,8.68
2018-08-08T13:23:04.015Z,7.85
2018-08-08T13:27:07.551Z,9.00
2018-08-08T13:31:10.957Z,8.60
2018-08-08T13:35:14.280Z,7.35
2018-08-08T13:39:17.666Z,7.45
2018-08-08T13:43:21.572Z,7.83
2018-08-08T13:47:25.084Z,7.28
2018-08-08T13:51:28.495Z,7.40
2018-08-08T13:55:38.411Z,7.45
2018-08-08T13:59:41.846Z,7.65
2018-08-08T14:03:45.248Z,8.03
2018-08-08T14:07:48.598Z,7.33
2018-08-08T14:11:52.083Z,6.60
2018-08-08T14:15:55.496Z,6.90
2018-08-08T14:19:58.809Z,5.97
2018-08-08T14:24:02.514Z,6.37
2018-08-08T14:28:05.904Z,6.35
2018-08-08T14:32:09.291Z,5.67
2018-08-08T14:36:12.660Z,5.40
2018-08-08T14:40:15.996Z,5.72
2018-08-08T14:44:19.695Z,5.80
2018-08-08T14:48:23.299Z,5.83
2018-08-08T14:52:26.736Z,6.15
2018-08-08T14:56:30.072Z,5.83
2018-08-08T15:00:33.555Z,5.85
2018-08-08T15:04:36.883Z,6.05
2018-08-08T15:08:40.211Z,6.25
2018-08-08T15:12:43.532Z,6.30
2018-08-08T15:16:46.860Z,6.15
2018-08-08T15:20:50.174Z,6.30
2018-08-08T15:24:53.501Z,6.53
2018-08-08T15:28:56.867Z,6.58
2018-08-08T15:33:00.214Z,6.30
2018-08-08T15:37:03.794Z,6.08
2018-08-08T15:41:06.960Z,6.75
2018-08-08T15:45:10.916Z,6.67
2018-08-08T15:49:14.244Z,6.17
2018-08-08T15:53:17.617Z,5.58
2018-08-08T15:57:21.330Z,6.10
2018-08-08T16:01:24.667Z,5.45
2018-08-08T16:05:27.984Z,5.75
2018-08-08T16:09:31.447Z,4.70
2018-08-08T16:13:34.796Z,4.92
2018-08-08T16:17:38.134Z,5.45
2018-08-08T16:21:41.468Z,5.95
2018-08-08T16:25:44.810Z,5.53
2018-08-08T16:29:48.147Z,6.00
2018-08-08T16:33:51.499Z,5.55
2018-08-08T16:37:54.850Z,6.45
2018-08-08T16:41:58.191Z,5.65
2018-08-08T16:46:01.551Z,5.65
2018-08-08T16:50:05.636Z,5.95
2018-08-08T16:54:08.950Z,5.70
2018-08-08T16:58:12.292Z,5.40
2018-08-08T17:02:15.640Z,6.25
2018-08-08T17:06:19.083Z,5.67
2018-08-08T17:10:22.443Z,5.53
2018-08-08T17:14:25.866Z,6.33
2018-08-08T17:18:29.132Z,5.37
2018-08-08T17:22:32.474Z,5.97
2018-08-08T17:26:35.816Z,5.03
2018-08-08T17:30:39.168Z,6.03
2018-08-08T17:34:42.527Z,5.60
2018-08-08T17:38:45.893Z,6.08
2018-08-08T17:42:49.221Z,6.45
2018-08-08T17:46:52.576Z,5.50
2018-08-08T17:50:55.903Z,6.50
2018-08-08T17:54:59.247Z,5.83
2018-08-08T17:59:02.615Z,6.58
2018-08-08T18:03:06.179Z,6.62
2018-08-08T18:07:09.494Z,6.15
2018-08-08T18:11:12.863Z,6.10
2018-08-08T18:15:16.196Z,5.95
2018-08-08T18:19:19.852Z,6.58
2018-08-08T18:23:23.180Z,6.05
2018-08-08T18:27:26.541Z,5.83
2018-08-08T18:31:29.874Z,5.50
2018-08-08T18:35:33.211Z,6.00
2018-08-08T18:39:36.600Z,5.62
2018-08-08T18:43:40.016Z,5.25
2018-08-08T18:47:43.350Z,6.55
2018-08-08T18:51:47.213Z,5.30
2018-08-08T18:55:50.572Z,5.62
2018-08-08T18:59:53.914Z,5.92
2018-08-08T19:03:57.300Z,5.65
2018-08-08T19:08:00.624Z,5.78
2018-08-08T19:12:03.963Z,5.60
2018-08-08T19:16:07.304Z,5.23
2018-08-08T19:20:10.651Z,5.50
2018-08-08T19:24:13.984Z,5.40
2018-08-08T19:28:17.294Z,5.53
2018-08-08T19:32:20.630Z,5.42
2018-08-08T19:36:23.963Z,5.55
2018-08-08T19:40:27.476Z,6.30
2018-08-08T19:44:30.811Z,5.30
2018-08-08T19:48:34.129Z,5.67
2018-08-08T19:52:37.481Z,5.70
2018-08-08T19:56:40.844Z,5.27
2018-08-08T20:00:45.663Z,5.33
2018-08-08T20:04:48.999Z,5.03
2018-08-08T20:08:52.320Z,5.10
2018-08-08T20:12:55.912Z,5.33
2018-08-08T20:16:59.487Z,5.43
2018-08-08T20:21:02.856Z,5.50
2018-08-08T20:25:06.387Z,5.93
2018-08-08T20:29:09.691Z,5.50
2018-08-08T20:33:13.078Z,5.50
2018-08-08T20:37:16.407Z,5.70
2018-08-08T20:41:19.788Z,5.97
2018-08-08T20:45:23.164Z,5.77
2018-08-08T20:49:26.815Z,5.57
2018-08-08T20:53:30.155Z,5.43
2018-08-08T20:57:33.803Z,5.30
2018-08-08T21:01:37.380Z,5.83
2018-08-08T21:05:40.854Z,5.77
2018-08-08T21:09:44.207Z,6.10
2018-08-08T21:13:47.716Z,6.03
2018-08-08T21:17:51.096Z,5.90
2018-08-08T21:21:54.644Z,6.27
2018-08-08T21:25:58.032Z,6.27
2018-08-08T21:30:01.340Z,6.37
2018-08-08T21:34:04.712Z,6.97
2018-08-08T21:38:08.054Z,6.20
2018-08-08T21:42:11.426Z,6.00
2018-08-08T21:46:14.763Z,5.80
2018-08-08T21:50:18.101Z,6.10
2018-08-08T21:54:32.751Z,6.27
2018-08-08T21:58:47.439Z,6.70
2018-08-08T22:03:02.081Z,7.30
2018-08-08T22:07:10.820Z,7.07
2018-08-08T22:11:25.506Z,8.03
2018-08-08T22:15:40.096Z,8.50
2018-08-08T22:19:44.536Z,7.20
2018-08-08T22:23:47.867Z,6.63
2018-08-08T22:27:51.241Z,7.23
2018-08-08T22:31:54.570Z,6.90
2018-08-08T22:35:57.908Z,6.73
2018-08-08T22:40:01.336Z,7.27
2018-08-08T22:44:04.695Z,7.40
2018-08-08T22:48:08.546Z,6.90
2018-08-08T22:52:11.867Z,7.30
2018-08-08T22:56:17.718Z,6.70
2018-08-08T23:00:22.401Z,6.20
2018-08-08T23:04:26.588Z,7.00
2018-08-08T23:08:34.164Z,7.40
2018-08-08T23:12:37.508Z,7.40
2018-08-08T23:16:41.707Z,9.30
2018-08-08T23:20:46.403Z,10.03
2018-08-08T23:24:49.797Z,9.60
2018-08-08T23:28:53.194Z,8.67
2018-08-08T23:32:56.469Z,9.10
2018-08-08T23:36:59.824Z,8.67
2018-08-08T23:41:03.208Z,8.50
2018-08-08T23:45:07.173Z,8.17
2018-08-08T23:49:10.509Z,8.07
2018-08-08T23:53:13.841Z,8.97
2018-08-08T23:57:17.235Z,8.30
